createdAt,value
2017-10-02T00:01:31.654Z,9.83
2017-10-02T00:03:59.651Z,9.84
2017-10-02T00:06:28.079Z,9.79
2017-10-02T00:08:55.657Z,9.76
2017-10-02T00:11:23.664Z,9.77
2017-10-02T00:13:51.241Z,9.76
2017-10-02T00:16:18.828Z,9.77
2017-10-02T00:18:47.074Z,9.77
2017-10-02T00:21:15.036Z,9.79
2017-10-02T00:23:42.629Z,9.70
2017-10-02T00:26:10.201Z,9.56
2017-10-02T00:28:38.311Z,9.45
2017-10-02T00:31:08.410Z,9.38
2017-10-02T00:33:37.036Z,9.34
2017-10-02T00:36:04.612Z,9.31
2017-10-02T00:38:32.176Z,9.28
2017-10-02T00:40:59.785Z,9.29
2017-10-02T00:43:28.752Z,9.35
2017-10-02T00:45:59.312Z,9.36
2017-10-02T00:48:27.870Z,9.34
2017-10-02T00:50:55.462Z,9.36
2017-10-02T00:53:23.439Z,9.41
2017-10-02T00:55:51.241Z,9.46
2017-10-02T00:58:19.156Z,9.48
2017-10-02T01:00:46.913Z,9.50
2017-10-02T01:03:14.896Z,9.50
2017-10-02T01:05:43.970Z,9.50
2017-10-02T01:08:11.549Z,9.41
2017-10-02T01:10:39.754Z,9.42
2017-10-02T01:13:07.305Z,9.34
2017-10-02T01:15:35.257Z,9.33
2017-10-02T01:18:02.833Z,9.28
2017-10-02T01:20:30.391Z,9.17
2017-10-02T01:22:58.031Z,9.16
2017-10-02T01:25:25.622Z,9.21
2017-10-02T01:27:53.254Z,9.27
2017-10-02T01:30:23.873Z,9.22
2017-10-02T01:32:51.771Z,9.11
2017-10-02T01:35:19.712Z,9.06
2017-10-02T01:37:47.252Z,8.97
2017-10-02T01:40:15.170Z,8.91
2017-10-02T01:42:42.731Z,8.87
2017-10-02T01:45:10.746Z,8.88
2017-10-02T01:47:38.285Z,8.86
2017-10-02T01:50:07.011Z,8.84
2017-10-02T01:52:36.590Z,8.79
2017-10-02T01:55:04.823Z,8.82
2017-10-02T01:57:33.764Z,8.79
2017-10-02T02:00:01.300Z,8.85
2017-10-02T02:02:29.258Z,8.91
2017-10-02T02:04:57.150Z,8.92
2017-10-02T02:10:00.056Z,8.96
2017-10-02T02:12:28.163Z,8.96
2017-10-02T02:14:56.460Z,8.99
2017-10-02T02:17:25.157Z,8.95
2017-10-02T02:19:52.739Z,8.86
2017-10-02T02:22:22.061Z,8.80
2017-10-02T02:24:50.317Z,8.71
2017-10-02T02:27:19.425Z,8.77
2017-10-02T02:29:46.992Z,8.84
2017-10-02T02:32:14.957Z,8.86
2017-10-02T02:34:47.432Z,8.83
2017-10-02T02:37:15.349Z,8.74
2017-10-02T02:39:43.464Z,8.66
2017-10-02T02:42:12.584Z,8.59
2017-10-02T02:44:40.618Z,8.49
2017-10-02T02:47:08.181Z,8.51
2017-10-02T02:49:35.746Z,8.54
2017-10-02T02:52:03.734Z,8.58
2017-10-02T02:54:31.291Z,8.65
2017-10-02T02:56:59.553Z,8.67
2017-10-02T02:59:27.121Z,8.61
2017-10-02T03:01:57.111Z,8.59
2017-10-02T03:04:24.680Z,8.52
2017-10-02T03:06:52.234Z,8.46
2017-10-02T03:09:19.817Z,8.41
2017-10-02T03:11:47.443Z,8.43
2017-10-02T03:14:15.025Z,8.50
2017-10-02T03:16:42.572Z,8.55
2017-10-02T03:19:10.433Z,8.59
2017-10-02T03:21:38.376Z,8.60
2017-10-02T03:24:06.820Z,8.53
2017-10-02T03:26:37.354Z,8.45
2017-10-02T03:29:07.613Z,8.43
2017-10-02T03:31:36.738Z,8.45
2017-10-02T03:34:04.325Z,8.35
2017-10-02T03:36:32.663Z,8.41
2017-10-02T03:39:02.020Z,8.48
2017-10-02T03:41:29.608Z,8.42
2017-10-02T03:43:57.608Z,8.42
2017-10-02T03:46:25.163Z,8.41
2017-10-02T03:48:53.038Z,8.47
2017-10-02T03:51:20.579Z,8.48
2017-10-02T03:53:48.535Z,8.52
2017-10-02T03:56:16.112Z,8.57
2017-10-02T03:58:46.092Z,8.58
2017-10-02T04:01:14.412Z,8.57
2017-10-02T04:03:43.856Z,8.56
2017-10-02T04:06:11.614Z,8.52
2017-10-02T04:08:39.402Z,8.54
2017-10-02T04:11:07.730Z,8.52
2017-10-02T04:13:37.047Z,8.43
2017-10-02T04:16:04.657Z,8.43
2017-10-02T04:18:32.224Z,8.41
2017-10-02T04:21:00.003Z,8.42
2017-10-02T04:23:27.594Z,8.42
2017-10-02T04:25:55.195Z,8.42
2017-10-02T04:28:24.478Z,8.40
2017-10-02T04:30:52.080Z,8.35
2017-10-02T04:33:20.079Z,8.28
2017-10-02T04:35:49.267Z,8.29
2017-10-02T04:38:19.941Z,8.28
2017-10-02T04:40:50.878Z,8.23
2017-10-02T04:43:18.786Z,8.18
2017-10-02T04:45:47.088Z,8.17
2017-10-02T04:48:14.780Z,8.12
2017-10-02T04:50:43.917Z,8.07
2017-10-02T04:53:11.902Z,8.01
2017-10-02T04:55:42.591Z,8.03
2017-10-02T04:58:10.597Z,8.05
2017-10-02T05:00:39.902Z,8.08
2017-10-02T05:03:08.844Z,8.10
2017-10-02T05:05:36.434Z,8.07
2017-10-02T05:08:04.628Z,8.08
2017-10-02T05:10:32.192Z,8.13
2017-10-02T05:13:01.387Z,8.17
2017-10-02T05:15:28.961Z,8.21
2017-10-02T05:17:56.530Z,8.24
2017-10-02T05:20:24.498Z,8.23
2017-10-02T05:22:52.075Z,8.24
2017-10-02T05:25:19.677Z,8.26
2017-10-02T05:27:47.195Z,8.29
2017-10-02T05:30:14.754Z,8.31
2017-10-02T05:32:42.760Z,8.30
2017-10-02T05:35:10.329Z,8.32
2017-10-02T05:37:38.246Z,8.37
2017-10-02T05:40:05.816Z,8.40
2017-10-02T05:42:33.389Z,8.41
2017-10-02T05:45:01.315Z,8.41
2017-10-02T05:47:28.889Z,8.43
2017-10-02T05:49:57.120Z,8.50
2017-10-02T05:52:24.716Z,8.58
2017-10-02T05:54:52.297Z,8.60
2017-10-02T05:57:19.873Z,8.60
2017-10-02T05:59:48.897Z,8.60
2017-10-02T06:02:16.454Z,8.63
2017-10-02T06:04:44.033Z,8.68
2017-10-02T06:07:11.614Z,8.71
2017-10-02T06:09:40.318Z,8.74
2017-10-02T06:12:07.878Z,8.77
2017-10-02T06:14:35.480Z,8.84
2017-10-02T06:17:03.100Z,8.88
2017-10-02T06:19:30.688Z,8.85
2017-10-02T06:21:58.280Z,8.87
2017-10-02T06:24:28.334Z,8.91
2017-10-02T06:26:55.937Z,8.97
2017-10-02T06:29:23.509Z,9.07
2017-10-02T06:31:51.142Z,9.19
2017-10-02T06:34:18.709Z,9.28
2017-10-02T06:36:46.280Z,9.37
2017-10-02T06:39:13.933Z,9.42
2017-10-02T06:41:41.893Z,9.49
2017-10-02T06:44:09.461Z,9.57
2017-10-02T06:46:37.052Z,9.67
2017-10-02T06:49:04.606Z,9.76
2017-10-02T06:51:32.499Z,9.83
2017-10-02T06:54:00.159Z,9.94
2017-10-02T06:56:27.742Z,9.99
2017-10-02T06:58:55.382Z,10.04
2017-10-02T07:01:23.035Z,10.10
2017-10-02T07:03:51.013Z,10.15
2017-10-02T07:06:18.606Z,10.22
2017-10-02T07:08:46.661Z,10.22
2017-10-02T07:11:14.244Z,10.26
2017-10-02T07:13:41.812Z,10.27
2017-10-02T07:16:09.405Z,10.31
2017-10-02T07:18:36.973Z,10.41
2017-10-02T07:21:04.565Z,10.48
2017-10-02T07:23:32.198Z,10.52
2017-10-02T07:26:01.889Z,10.63
2017-10-02T07:28:30.116Z,10.74
2017-10-02T07:30:57.788Z,10.84
2017-10-02T07:33:26.493Z,10.91
2017-10-02T07:35:54.404Z,10.91
2017-10-02T07:38:22.653Z,10.88
2017-10-02T07:40:50.279Z,10.93
2017-10-02T07:43:18.365Z,10.95
2017-10-02T07:45:45.952Z,11.02
2017-10-02T07:48:13.935Z,11.11
2017-10-02T07:50:42.889Z,11.20
2017-10-02T07:53:10.464Z,11.29
2017-10-02T07:55:38.464Z,11.32
2017-10-02T07:58:07.531Z,11.39
2017-10-02T08:00:35.121Z,11.44
2017-10-02T08:03:03.008Z,11.53
2017-10-02T08:05:30.596Z,11.63
2017-10-02T08:07:58.180Z,11.73
2017-10-02T08:10:26.253Z,11.79
2017-10-02T08:12:53.837Z,11.81
2017-10-02T08:15:21.450Z,11.84
2017-10-02T08:17:49.084Z,11.92
2017-10-02T08:20:16.673Z,12.02
2017-10-02T08:22:44.265Z,12.14
2017-10-02T08:25:11.851Z,12.22
2017-10-02T08:27:39.815Z,12.31
2017-10-02T08:30:07.537Z,12.27
2017-10-02T08:32:35.196Z,12.38
2017-10-02T08:35:02.760Z,12.48
2017-10-02T08:37:30.349Z,12.56
2017-10-02T08:39:57.935Z,12.66
2017-10-02T08:42:25.517Z,12.81
2017-10-02T08:44:53.215Z,12.85
2017-10-02T08:47:20.792Z,12.96
2017-10-02T08:49:48.396Z,13.01
2017-10-02T08:52:15.959Z,13.04
2017-10-02T08:54:43.540Z,12.97
2017-10-02T08:57:11.710Z,12.89
2017-10-02T08:59:40.370Z,12.92
2017-10-02T09:02:07.964Z,13.02
2017-10-02T09:04:35.542Z,13.03
2017-10-02T09:07:03.120Z,13.08
2017-10-02T09:09:30.742Z,13.20
2017-10-02T09:11:58.296Z,13.37
2017-10-02T09:14:25.861Z,13.51
2017-10-02T09:16:54.868Z,13.71
2017-10-02T09:19:23.009Z,13.77
2017-10-02T09:21:51.102Z,13.78
2017-10-02T09:24:18.667Z,13.82
2017-10-02T09:26:48.687Z,13.98
2017-10-02T09:29:16.290Z,14.06
2017-10-02T09:31:44.910Z,14.15
2017-10-02T09:34:12.463Z,14.30
2017-10-02T09:36:40.375Z,14.41
2017-10-02T09:39:08.299Z,14.55
2017-10-02T09:41:36.325Z,14.61
2017-10-02T09:44:03.887Z,14.68
2017-10-02T09:46:31.625Z,14.73
2017-10-02T09:49:00.610Z,14.82
2017-10-02T09:51:29.506Z,14.93
2017-10-02T09:53:59.102Z,15.06
2017-10-02T09:56:26.654Z,15.21
2017-10-02T09:58:54.606Z,15.37
2017-10-02T10:01:22.343Z,15.43
2017-10-02T10:03:51.292Z,15.49
2017-10-02T10:06:18.887Z,15.58
2017-10-02T10:08:46.485Z,15.72
2017-10-02T10:11:14.077Z,15.82
2017-10-02T10:13:41.613Z,15.94
2017-10-02T10:16:09.194Z,16.06
2017-10-02T10:18:36.768Z,16.15
2017-10-02T10:21:04.385Z,16.25
2017-10-02T10:23:31.970Z,16.39
2017-10-02T10:25:59.520Z,16.48
2017-10-02T10:28:27.474Z,16.63
2017-10-02T10:30:55.067Z,16.78
2017-10-02T10:33:22.618Z,16.82
2017-10-02T10:35:50.713Z,17.00
2017-10-02T10:38:18.306Z,17.12
2017-10-02T10:40:45.862Z,17.21
2017-10-02T10:43:13.467Z,17.20
2017-10-02T10:45:42.272Z,17.26
2017-10-02T10:48:09.874Z,17.28
2017-10-02T10:50:37.433Z,17.33
2017-10-02T10:53:05.019Z,17.27
2017-10-02T10:55:32.621Z,17.38
2017-10-02T10:58:00.178Z,17.39
2017-10-02T11:00:28.171Z,17.47
2017-10-02T11:02:55.706Z,17.55
2017-10-02T11:05:23.301Z,17.60
2017-10-02T11:07:51.331Z,17.57
2017-10-02T11:10:18.937Z,17.59
2017-10-02T11:12:46.489Z,17.56
2017-10-02T11:15:14.073Z,17.58
2017-10-02T11:17:42.180Z,17.58
2017-10-02T11:20:11.151Z,17.57
2017-10-02T11:22:39.904Z,17.53
2017-10-02T11:25:07.497Z,17.56
2017-10-02T11:27:35.069Z,17.68
2017-10-02T11:30:02.623Z,17.84
2017-10-02T11:32:30.510Z,18.04
2017-10-02T11:34:58.080Z,18.21
2017-10-02T11:37:27.101Z,18.21
2017-10-02T11:39:54.682Z,18.22
2017-10-02T11:42:23.667Z,18.27
2017-10-02T11:44:51.405Z,18.38
2017-10-02T11:47:20.129Z,18.45
2017-10-02T11:49:47.790Z,18.51
2017-10-02T11:52:16.910Z,18.51
2017-10-02T11:54:44.500Z,18.54
2017-10-02T11:57:12.476Z,18.62
2017-10-02T11:59:40.032Z,18.67
2017-10-02T12:02:09.001Z,18.73
2017-10-02T12:04:36.927Z,18.85
2017-10-02T12:07:04.526Z,18.89
2017-10-02T12:09:32.090Z,18.98
2017-10-02T12:11:59.675Z,19.06
2017-10-02T12:14:27.548Z,19.11
2017-10-02T12:16:55.141Z,19.11
2017-10-02T12:19:24.222Z,19.08
2017-10-02T12:21:52.325Z,18.99
2017-10-02T12:24:23.737Z,18.99
2017-10-02T12:26:55.451Z,19.01
2017-10-02T12:29:23.021Z,19.03
2017-10-02T12:31:50.613Z,19.06
2017-10-02T12:34:18.177Z,19.04
2017-10-02T12:36:45.747Z,19.10
2017-10-02T12:39:14.301Z,19.16
2017-10-02T12:41:43.110Z,19.26
2017-10-02T12:44:11.263Z,19.43
2017-10-02T12:46:39.980Z,19.58
2017-10-02T12:49:07.577Z,19.68
2017-10-02T12:51:36.878Z,19.77
2017-10-02T12:54:04.857Z,19.81
2017-10-02T12:56:32.438Z,19.76
2017-10-02T12:59:00.051Z,19.69
2017-10-02T13:01:31.023Z,19.69
2017-10-02T13:03:59.760Z,19.76
2017-10-02T13:06:27.338Z,19.82
2017-10-02T13:08:56.541Z,19.83
2017-10-02T13:11:24.119Z,19.83
2017-10-02T13:13:51.892Z,19.81
2017-10-02T13:16:19.459Z,19.76
2017-10-02T13:18:47.396Z,19.71
2017-10-02T13:21:15.047Z,19.63
2017-10-02T13:23:42.622Z,19.63
2017-10-02T13:26:12.980Z,19.62
2017-10-02T13:28:41.607Z,19.60
2017-10-02T13:31:10.216Z,19.61
2017-10-02T13:33:40.120Z,19.58
2017-10-02T13:36:10.000Z,19.51
2017-10-02T13:38:40.669Z,19.45
2017-10-02T13:41:10.152Z,19.43
2017-10-02T13:43:40.422Z,19.37
2017-10-02T13:46:11.859Z,19.38
2017-10-02T13:48:39.949Z,19.37
2017-10-02T13:51:07.562Z,19.39
2017-10-02T13:53:41.437Z,19.37
2017-10-02T13:56:09.449Z,19.36
2017-10-02T13:58:37.929Z,19.29
2017-10-02T14:01:07.447Z,19.24
2017-10-02T14:03:45.903Z,19.25
2017-10-02T14:06:15.211Z,19.17
2017-10-02T14:08:47.241Z,19.15
2017-10-02T14:11:16.167Z,18.99
2017-10-02T14:13:44.787Z,18.92
2017-10-02T14:16:13.160Z,18.82
2017-10-02T14:18:40.777Z,18.69
2017-10-02T14:21:08.339Z,18.54
2017-10-02T14:23:36.619Z,18.41
2017-10-02T14:26:05.565Z,18.29
2017-10-02T14:28:33.591Z,18.18
2017-10-02T14:31:04.254Z,18.06
2017-10-02T14:33:32.121Z,17.97
2017-10-02T14:36:02.547Z,17.85
2017-10-02T14:38:32.045Z,17.78
2017-10-02T14:40:59.624Z,17.71
2017-10-02T14:43:27.609Z,17.61
2017-10-02T14:45:55.829Z,17.52
2017-10-02T14:48:23.405Z,17.44
2017-10-02T14:50:50.964Z,17.40
2017-10-02T14:53:18.563Z,17.36
2017-10-02T14:55:49.097Z,17.35
2017-10-02T14:58:18.221Z,17.27
2017-10-02T15:00:45.814Z,17.19
2017-10-02T15:03:14.083Z,17.14
2017-10-02T15:05:43.210Z,17.11
2017-10-02T15:08:11.454Z,17.05
2017-10-02T15:10:39.038Z,17.02
2017-10-02T15:13:07.378Z,16.99
2017-10-02T15:15:35.430Z,16.94
2017-10-02T15:18:02.987Z,16.93
2017-10-02T15:20:32.003Z,16.87
2017-10-02T15:23:04.821Z,16.82
2017-10-02T15:25:32.758Z,16.82
2017-10-02T15:28:01.834Z,16.78
2017-10-02T15:30:31.876Z,16.76
2017-10-02T15:33:01.205Z,16.75
2017-10-02T15:35:30.661Z,16.72
2017-10-02T15:37:59.186Z,16.70
2017-10-02T15:40:28.974Z,16.64
2017-10-02T15:42:56.954Z,16.62
2017-10-02T15:45:24.867Z,16.54
2017-10-02T15:47:52.915Z,16.49
2017-10-02T15:50:22.791Z,16.47
2017-10-02T15:52:50.798Z,16.45
2017-10-02T15:55:20.103Z,16.41
2017-10-02T15:57:47.674Z,16.40
2017-10-02T16:00:15.372Z,16.39
2017-10-02T16:02:42.974Z,16.37
2017-10-02T16:05:10.564Z,16.35
2017-10-02T16:07:39.856Z,16.33
2017-10-02T16:10:08.872Z,16.32
2017-10-02T16:12:40.234Z,16.29
2017-10-02T16:15:07.910Z,16.27
2017-10-02T16:17:36.746Z,16.26
2017-10-02T16:20:04.332Z,16.22
2017-10-02T16:22:32.351Z,16.19
2017-10-02T16:25:01.056Z,16.17
2017-10-02T16:27:29.403Z,16.15
2017-10-02T16:29:58.964Z,16.11
2017-10-02T16:32:26.657Z,16.09
2017-10-02T16:34:54.239Z,16.06
2017-10-02T16:37:23.272Z,16.05
2017-10-02T16:39:51.029Z,16.02
2017-10-02T16:42:21.104Z,16.01
2017-10-02T16:44:48.682Z,15.98
2017-10-02T16:47:16.306Z,15.95
2017-10-02T16:49:43.871Z,15.90
2017-10-02T16:52:13.063Z,15.86
2017-10-02T16:54:41.369Z,15.85
2017-10-02T16:57:13.059Z,15.82
2017-10-02T16:59:41.019Z,15.80
2017-10-02T17:02:09.681Z,15.78
2017-10-02T17:04:37.312Z,15.75
2017-10-02T17:07:06.131Z,15.74
2017-10-02T17:09:34.485Z,15.75
2017-10-02T17:12:02.123Z,15.73
2017-10-02T17:14:29.694Z,15.72
2017-10-02T17:16:57.320Z,15.70
2017-10-02T17:19:25.685Z,15.68
2017-10-02T17:21:53.983Z,15.65
2017-10-02T17:24:21.556Z,15.62
2017-10-02T17:26:51.838Z,15.59
2017-10-02T17:29:19.951Z,15.57
2017-10-02T17:31:47.549Z,15.53
2017-10-02T17:34:15.151Z,15.53
2017-10-02T17:36:43.085Z,15.50
2017-10-02T17:39:12.018Z,15.49
2017-10-02T17:41:39.669Z,15.46
2017-10-02T17:44:07.672Z,15.45
2017-10-02T17:46:36.437Z,15.43
2017-10-02T17:49:05.392Z,15.41
2017-10-02T17:51:33.793Z,15.39
2017-10-02T17:54:01.356Z,15.37
2017-10-02T17:56:29.333Z,15.36
2017-10-02T17:59:00.192Z,15.34
2017-10-02T18:01:27.796Z,15.32
2017-10-02T18:03:55.428Z,15.29
2017-10-02T18:06:23.374Z,15.28
2017-10-02T18:08:50.994Z,15.28
2017-10-02T18:11:18.980Z,15.26
2017-10-02T18:13:46.564Z,15.27
2017-10-02T18:16:14.177Z,15.25
2017-10-02T18:18:41.792Z,15.25
2017-10-02T18:21:09.358Z,15.25
2017-10-02T18:23:38.601Z,15.21
2017-10-02T18:26:06.520Z,15.19
2017-10-02T18:28:37.390Z,15.17
2017-10-02T18:31:05.097Z,15.15
2017-10-02T18:33:33.238Z,15.15
2017-10-02T18:36:00.845Z,15.14
2017-10-02T18:38:28.888Z,15.14
2017-10-02T18:40:56.467Z,15.13
2017-10-02T18:43:24.065Z,15.15
2017-10-02T18:45:51.738Z,15.13
2017-10-02T18:48:19.906Z,15.13
2017-10-02T18:50:47.487Z,15.11
2017-10-02T18:53:15.484Z,15.06
2017-10-02T18:55:43.077Z,15.03
2017-10-02T18:58:10.707Z,15.00
2017-10-02T19:00:38.316Z,14.98
2017-10-02T19:03:05.965Z,14.96
2017-10-02T19:05:33.541Z,14.93
2017-10-02T19:08:01.164Z,14.92
2017-10-02T19:10:30.905Z,14.89
2017-10-02T19:12:58.501Z,14.85
2017-10-02T19:15:26.101Z,14.82
2017-10-02T19:17:53.716Z,14.81
2017-10-02T19:20:21.526Z,14.79
2017-10-02T19:22:49.141Z,14.77
2017-10-02T19:25:16.841Z,14.78
2017-10-02T19:27:45.771Z,14.79
2017-10-02T19:30:13.397Z,14.79
2017-10-02T19:32:41.393Z,14.79
2017-10-02T19:35:09.176Z,14.80
2017-10-02T19:37:37.599Z,14.79
2017-10-02T19:40:05.618Z,14.78
2017-10-02T19:42:33.187Z,14.79
2017-10-02T19:45:00.817Z,14.78
2017-10-02T19:47:28.510Z,14.78
2017-10-02T19:49:56.099Z,14.76
2017-10-02T19:52:24.127Z,14.75
2017-10-02T19:54:52.093Z,14.74
2017-10-02T19:57:21.007Z,14.74
2017-10-02T19:59:48.569Z,14.75
2017-10-02T20:02:16.498Z,14.75
2017-10-02T20:04:44.892Z,14.74
2017-10-02T20:07:12.486Z,14.75
2017-10-02T20:09:42.086Z,14.74
2017-10-02T20:12:09.712Z,14.73
2017-10-02T20:14:37.635Z,14.73
2017-10-02T20:17:05.257Z,14.72
2017-10-02T20:19:32.879Z,14.72
2017-10-02T20:22:00.476Z,14.72
2017-10-02T20:24:28.658Z,14.72
2017-10-02T20:26:56.683Z,14.72
2017-10-02T20:29:24.333Z,14.72
2017-10-02T20:31:51.948Z,14.72
2017-10-02T20:34:20.804Z,14.73
2017-10-02T20:36:48.392Z,14.73
2017-10-02T20:39:15.970Z,14.74
2017-10-02T20:41:43.547Z,14.74
2017-10-02T20:44:11.202Z,14.75
2017-10-02T20:46:38.794Z,14.76
2017-10-02T20:49:06.354Z,14.75
2017-10-02T20:51:33.974Z,14.76
2017-10-02T20:54:01.577Z,14.76
2017-10-02T20:56:29.156Z,14.77
2017-10-02T20:58:56.766Z,14.77
2017-10-02T21:01:24.347Z,14.77
2017-10-02T21:03:51.918Z,14.79
2017-10-02T21:06:19.510Z,14.79
2017-10-02T21:08:47.085Z,14.80
2017-10-02T21:11:15.563Z,14.81
2017-10-02T21:13:43.479Z,14.82
2017-10-02T21:16:11.257Z,14.81
2017-10-02T21:18:38.828Z,14.81
2017-10-02T21:21:06.429Z,14.83
2017-10-02T21:23:34.501Z,14.83
2017-10-02T21:26:02.440Z,14.83
2017-10-02T21:28:31.472Z,14.83
2017-10-02T21:30:59.378Z,14.83
2017-10-02T21:33:27.320Z,14.84
2017-10-02T21:35:54.893Z,14.84
2017-10-02T21:38:22.838Z,14.85
2017-10-02T21:40:51.445Z,14.84
2017-10-02T21:43:18.987Z,14.84
2017-10-02T21:45:46.626Z,14.85
2017-10-02T21:48:14.730Z,14.86
2017-10-02T21:50:42.329Z,14.86
2017-10-02T21:53:10.275Z,14.86
2017-10-02T21:55:37.846Z,14.86
2017-10-02T21:58:05.448Z,14.87
2017-10-02T22:00:34.120Z,14.88
2017-10-02T22:03:02.367Z,14.88
2017-10-02T22:05:29.962Z,14.88
2017-10-02T22:07:58.885Z,14.89
2017-10-02T22:10:27.855Z,14.90
2017-10-02T22:12:55.863Z,14.90
2017-10-02T22:15:23.604Z,14.90
2017-10-02T22:17:52.607Z,14.90
2017-10-02T22:20:20.186Z,14.91
2017-10-02T22:22:47.757Z,14.90
2017-10-02T22:25:15.632Z,14.91
2017-10-02T22:27:43.254Z,14.91
2017-10-02T22:30:10.824Z,14.92
2017-10-02T22:32:38.443Z,14.93
2017-10-02T22:35:10.221Z,14.94
2017-10-02T22:37:37.865Z,14.94
2017-10-02T22:40:06.508Z,14.94
2017-10-02T22:42:35.783Z,14.96
2017-10-02T22:45:03.356Z,14.97
2017-10-02T22:47:32.314Z,14.97
2017-10-02T22:50:00.322Z,14.98
2017-10-02T22:52:27.895Z,14.98
2017-10-02T22:54:56.214Z,14.99
2017-10-02T22:57:23.752Z,14.99
2017-10-02T22:59:52.578Z,14.99
2017-10-02T23:02:21.590Z,15.01
2017-10-02T23:04:49.520Z,15.02
2017-10-02T23:07:17.447Z,15.02
2017-10-02T23:09:45.014Z,15.02
2017-10-02T23:12:13.334Z,15.03
2017-10-02T23:14:40.898Z,15.03
2017-10-02T23:17:08.460Z,15.03
2017-10-02T23:19:38.797Z,15.03
2017-10-02T23:22:07.896Z,15.04
2017-10-02T23:24:35.504Z,15.05
2017-10-02T23:27:03.102Z,15.05
2017-10-02T23:29:31.043Z,15.06
2017-10-02T23:31:59.340Z,15.07
2017-10-02T23:34:29.001Z,15.08
2017-10-02T23:36:56.597Z,15.10
2017-10-02T23:39:24.228Z,15.11
2017-10-02T23:41:52.139Z,15.11
2017-10-02T23:44:19.708Z,15.12
2017-10-02T23:46:48.730Z,15.11
2017-10-02T23:49:17.139Z,15.12
2017-10-02T23:51:45.101Z,15.12
2017-10-02T23:54:12.668Z,15.11
2017-10-02T23:56:40.241Z,15.12
2017-10-02T23:59:07.854Z,15.12
